sensor_id;sensor_type;location;lat;lon;timestamp;pressure;altitude;pressure_sealevel;temperature;humidity
50302;BME280;36550;50.472;19.744;2024-03-22T00:00:52;98275.06;;;9.07;67.02
50302;BME280;36550;50.472;19.744;2024-03-22T00:03:36;98269.71;;;9.06;67.19
50302;BME280;36550;50.472;19.744;2024-03-22T00:06:20;98269.02;;;9.06;67.16
50302;BME280;36550;50.472;19.744;2024-03-22T00:09:05;98264.61;;;9.05;67.36
50302;BME280;36550;50.472;19.744;2024-03-22T00:11:49;98258.04;;;9.06;67.56
50302;BME280;36550;50.472;19.744;2024-03-22T00:14:33;98256.69;;;9.09;67.87
50302;BME280;36550;50.472;19.744;2024-03-22T00:17:17;98257.09;;;9.09;68.15
50302;BME280;36550;50.472;19.744;2024-03-22T00:20:01;98255.27;;;9.10;68.23
50302;BME280;36550;50.472;19.744;2024-03-22T00:22:45;98254.23;;;9.11;68.34
50302;BME280;36550;50.472;19.744;2024-03-22T00:25:29;98256.86;;;9.11;68.52
50302;BME280;36550;50.472;19.744;2024-03-22T00:28:13;98255.91;;;9.11;68.67
50302;BME280;36550;50.472;19.744;2024-03-22T00:30:57;98255.19;;;9.09;68.83
50302;BME280;36550;50.472;19.744;2024-03-22T00:33:41;98254.20;;;9.08;68.87
50302;BME280;36550;50.472;19.744;2024-03-22T00:36:26;98251.35;;;9.07;68.96
50302;BME280;36550;50.472;19.744;2024-03-22T00:39:10;98250.67;;;9.05;69.37
50302;BME280;36550;50.472;19.744;2024-03-22T00:41:54;98252.02;;;9.04;69.60
50302;BME280;36550;50.472;19.744;2024-03-22T00:44:39;98252.54;;;9.04;69.74
50302;BME280;36550;50.472;19.744;2024-03-22T00:47:23;98248.92;;;9.04;69.97
50302;BME280;36550;50.472;19.744;2024-03-22T00:50:08;98247.15;;;9.04;70.67
50302;BME280;36550;50.472;19.744;2024-03-22T00:52:54;98247.86;;;9.05;70.77
50302;BME280;36550;50.472;19.744;2024-03-22T00:55:40;98246.70;;;9.05;70.76
50302;BME280;36550;50.472;19.744;2024-03-22T00:58:25;98247.35;;;9.04;71.23
50302;BME280;36550;50.472;19.744;2024-03-22T01:01:09;98246.60;;;9.03;72.32
50302;BME280;36550;50.472;19.744;2024-03-22T01:03:53;98248.60;;;9.04;72.02
50302;BME280;36550;50.472;19.744;2024-03-22T01:06:37;98248.64;;;9.05;71.94
50302;BME280;36550;50.472;19.744;2024-03-22T01:09:24;98251.08;;;9.06;72.03
50302;BME280;36550;50.472;19.744;2024-03-22T01:12:08;98255.02;;;9.08;72.25
50302;BME280;36550;50.472;19.744;2024-03-22T01:14:53;98253.36;;;9.10;72.24
50302;BME280;36550;50.472;19.744;2024-03-22T01:17:38;98253.23;;;9.11;72.26
50302;BME280;36550;50.472;19.744;2024-03-22T01:20:22;98253.98;;;9.13;72.38
50302;BME280;36550;50.472;19.744;2024-03-22T01:23:06;98250.05;;;9.15;72.80
50302;BME280;36550;50.472;19.744;2024-03-22T01:25:50;98248.38;;;9.16;73.26
50302;BME280;36550;50.472;19.744;2024-03-22T01:28:34;98247.17;;;9.17;73.43
50302;BME280;36550;50.472;19.744;2024-03-22T01:31:19;98245.90;;;9.16;73.47
50302;BME280;36550;50.472;19.744;2024-03-22T01:34:03;98243.45;;;9.16;73.63
50302;BME280;36550;50.472;19.744;2024-03-22T01:36:47;98243.33;;;9.14;73.94
50302;BME280;36550;50.472;19.744;2024-03-22T01:39:31;98245.05;;;9.13;73.85
50302;BME280;36550;50.472;19.744;2024-03-22T01:42:15;98243.40;;;9.13;74.25
50302;BME280;36550;50.472;19.744;2024-03-22T01:45:01;98252.33;;;9.13;74.04
50302;BME280;36550;50.472;19.744;2024-03-22T01:47:45;98245.23;;;9.14;74.26
50302;BME280;36550;50.472;19.744;2024-03-22T01:50:29;98244.05;;;9.15;74.38
50302;BME280;36550;50.472;19.744;2024-03-22T01:53:14;98242.67;;;9.16;74.64
50302;BME280;36550;50.472;19.744;2024-03-22T01:55:58;98247.13;;;9.17;74.51
50302;BME280;36550;50.472;19.744;2024-03-22T01:58:42;98245.84;;;9.17;74.77
50302;BME280;36550;50.472;19.744;2024-03-22T02:01:27;98247.34;;;9.17;74.85
50302;BME280;36550;50.472;19.744;2024-03-22T02:04:11;98244.85;;;9.16;75.09
50302;BME280;36550;50.472;19.744;2024-03-22T02:06:55;98247.27;;;9.16;75.08
50302;BME280;36550;50.472;19.744;2024-03-22T02:09:39;98242.31;;;9.15;75.18
50302;BME280;36550;50.472;19.744;2024-03-22T02:12:23;98246.02;;;9.16;75.41
50302;BME280;36550;50.472;19.744;2024-03-22T02:15:08;98246.45;;;9.17;75.80
50302;BME280;36550;50.472;19.744;2024-03-22T02:17:52;98244.67;;;9.17;76.63
50302;BME280;36550;50.472;19.744;2024-03-22T02:20:37;98243.81;;;9.18;77.58
50302;BME280;36550;50.472;19.744;2024-03-22T02:23:37;98244.70;;;9.21;77.44
50302;BME280;36550;50.472;19.744;2024-03-22T02:26:22;98241.44;;;9.25;78.34
50302;BME280;36550;50.472;19.744;2024-03-22T02:29:06;98243.48;;;9.29;77.95
50302;BME280;36550;50.472;19.744;2024-03-22T02:31:51;98237.01;;;9.32;79.01
50302;BME280;36550;50.472;19.744;2024-03-22T02:34:35;98242.09;;;9.34;79.72
50302;BME280;36550;50.472;19.744;2024-03-22T02:37:19;98240.21;;;9.33;79.97
50302;BME280;36550;50.472;19.744;2024-03-22T02:40:03;98243.20;;;9.33;79.95
50302;BME280;36550;50.472;19.744;2024-03-22T02:42:47;98241.39;;;9.33;79.66
50302;BME280;36550;50.472;19.744;2024-03-22T02:45:32;98242.43;;;9.33;79.83
50302;BME280;36550;50.472;19.744;2024-03-22T02:48:17;98245.14;;;9.32;79.51
50302;BME280;36550;50.472;19.744;2024-03-22T02:51:01;98243.49;;;9.31;79.71
50302;BME280;36550;50.472;19.744;2024-03-22T02:53:45;98243.66;;;9.31;79.50
50302;BME280;36550;50.472;19.744;2024-03-22T02:56:29;98244.01;;;9.33;79.40
50302;BME280;36550;50.472;19.744;2024-03-22T02:59:13;98246.86;;;9.33;79.86
50302;BME280;36550;50.472;19.744;2024-03-22T03:01:57;98248.39;;;9.34;79.74
50302;BME280;36550;50.472;19.744;2024-03-22T03:04:41;98243.73;;;9.34;80.01
50302;BME280;36550;50.472;19.744;2024-03-22T03:07:26;98238.83;;;9.35;79.94
50302;BME280;36550;50.472;19.744;2024-03-22T03:10:11;98236.23;;;9.36;80.24
50302;BME280;36550;50.472;19.744;2024-03-22T03:12:55;98235.05;;;9.34;80.25
50302;BME280;36550;50.472;19.744;2024-03-22T03:15:39;98239.40;;;9.33;80.38
50302;BME280;36550;50.472;19.744;2024-03-22T03:18:24;98238.31;;;9.31;80.43
50302;BME280;36550;50.472;19.744;2024-03-22T03:21:08;98238.94;;;9.29;80.36
50302;BME280;36550;50.472;19.744;2024-03-22T03:23:52;98239.15;;;9.28;80.52
50302;BME280;36550;50.472;19.744;2024-03-22T03:26:36;98240.15;;;9.25;80.64
50302;BME280;36550;50.472;19.744;2024-03-22T03:29:20;98238.59;;;9.24;80.75
50302;BME280;36550;50.472;19.744;2024-03-22T03:32:05;98237.06;;;9.24;80.94
50302;BME280;36550;50.472;19.744;2024-03-22T03:34:49;98235.55;;;9.22;81.09
50302;BME280;36550;50.472;19.744;2024-03-22T03:37:33;98231.21;;;9.20;81.15
50302;BME280;36550;50.472;19.744;2024-03-22T03:40:17;98230.10;;;9.20;81.07
50302;BME280;36550;50.472;19.744;2024-03-22T03:43:02;98227.80;;;9.19;81.26
50302;BME280;36550;50.472;19.744;2024-03-22T03:45:46;98231.17;;;9.17;81.24
50302;BME280;36550;50.472;19.744;2024-03-22T03:48:30;98232.89;;;9.15;81.21
50302;BME280;36550;50.472;19.744;2024-03-22T03:51:14;98236.65;;;9.13;81.15
50302;BME280;36550;50.472;19.744;2024-03-22T03:53:58;98233.91;;;9.11;81.23
50302;BME280;36550;50.472;19.744;2024-03-22T03:56:42;98225.17;;;9.07;81.38
50302;BME280;36550;50.472;19.744;2024-03-22T03:59:26;98220.44;;;9.02;81.48
50302;BME280;36550;50.472;19.744;2024-03-22T04:02:10;98225.84;;;8.97;81.53
50302;BME280;36550;50.472;19.744;2024-03-22T04:04:54;98222.23;;;8.93;81.53
50302;BME280;36550;50.472;19.744;2024-03-22T04:07:38;98225.68;;;8.90;81.59
50302;BME280;36550;50.472;19.744;2024-03-22T04:10:23;98226.77;;;8.85;81.64
50302;BME280;36550;50.472;19.744;2024-03-22T04:13:07;98228.98;;;8.82;81.72
50302;BME280;36550;50.472;19.744;2024-03-22T04:15:53;98227.92;;;8.79;81.86
50302;BME280;36550;50.472;19.744;2024-03-22T04:18:37;98229.51;;;8.75;81.87
50302;BME280;36550;50.472;19.744;2024-03-22T04:21:22;98227.52;;;8.72;81.95
50302;BME280;36550;50.472;19.744;2024-03-22T04:24:07;98229.24;;;8.68;82.03
50302;BME280;36550;50.472;19.744;2024-03-22T04:26:50;98228.94;;;8.65;82.10
50302;BME280;36550;50.472;19.744;2024-03-22T04:29:35;98224.63;;;8.62;82.12
50302;BME280;36550;50.472;19.744;2024-03-22T04:32:19;98221.73;;;8.58;82.37
50302;BME280;36550;50.472;19.744;2024-03-22T04:35:03;98219.73;;;8.56;82.43
50302;BME280;36550;50.472;19.744;2024-03-22T04:37:47;98222.61;;;8.54;82.64
50302;BME280;36550;50.472;19.744;2024-03-22T04:40:31;98223.20;;;8.53;82.78
50302;BME280;36550;50.472;19.744;2024-03-22T04:43:16;98224.92;;;8.52;82.92
50302;BME280;36550;50.472;19.744;2024-03-22T04:46:00;98222.40;;;8.51;82.93
50302;BME280;36550;50.472;19.744;2024-03-22T04:48:44;98221.84;;;8.50;82.97
50302;BME280;36550;50.472;19.744;2024-03-22T04:51:28;98225.53;;;8.51;83.16
50302;BME280;36550;50.472;19.744;2024-03-22T04:54:12;98223.96;;;8.52;82.99
50302;BME280;36550;50.472;19.744;2024-03-22T04:56:56;98224.80;;;8.53;83.09
50302;BME280;36550;50.472;19.744;2024-03-22T04:59:40;98228.86;;;8.56;83.20
50302;BME280;36550;50.472;19.744;2024-03-22T05:02:24;98236.16;;;8.60;83.25
50302;BME280;36550;50.472;19.744;2024-03-22T05:05:08;98243.02;;;8.63;83.45
50302;BME280;36550;50.472;19.744;2024-03-22T05:07:53;98247.38;;;8.65;83.50
50302;BME280;36550;50.472;19.744;2024-03-22T05:10:37;98245.34;;;8.68;83.40
50302;BME280;36550;50.472;19.744;2024-03-22T05:13:22;98243.48;;;8.70;83.64
50302;BME280;36550;50.472;19.744;2024-03-22T05:16:07;98243.92;;;8.73;83.79
50302;BME280;36550;50.472;19.744;2024-03-22T05:18:51;98245.19;;;8.76;83.80
50302;BME280;36550;50.472;19.744;2024-03-22T05:21:35;98240.84;;;8.80;83.92
50302;BME280;36550;50.472;19.744;2024-03-22T05:24:19;98236.56;;;8.84;84.02
50302;BME280;36550;50.472;19.744;2024-03-22T05:27:03;98238.73;;;8.89;84.30
50302;BME280;36550;50.472;19.744;2024-03-22T05:29:47;98239.05;;;8.94;84.52
50302;BME280;36550;50.472;19.744;2024-03-22T05:32:32;98239.76;;;8.99;84.50
50302;BME280;36550;50.472;19.744;2024-03-22T05:35:16;98237.48;;;9.03;84.56
50302;BME280;36550;50.472;19.744;2024-03-22T05:38:00;98239.02;;;9.09;84.96
50302;BME280;36550;50.472;19.744;2024-03-22T05:40:44;98236.02;;;9.14;84.87
50302;BME280;36550;50.472;19.744;2024-03-22T05:43:31;98239.27;;;9.20;84.94
50302;BME280;36550;50.472;19.744;2024-03-22T05:46:16;98236.73;;;9.25;84.96
50302;BME280;36550;50.472;19.744;2024-03-22T05:49:00;98235.09;;;9.30;84.98
50302;BME280;36550;50.472;19.744;2024-03-22T05:51:44;98231.57;;;9.35;84.86
50302;BME280;36550;50.472;19.744;2024-03-22T05:54:28;98236.21;;;9.41;84.85
50302;BME280;36550;50.472;19.744;2024-03-22T05:57:12;98237.90;;;9.43;84.89
50302;BME280;36550;50.472;19.744;2024-03-22T05:59:57;98239.35;;;9.44;84.96
50302;BME280;36550;50.472;19.744;2024-03-22T06:02:41;98243.95;;;9.47;84.95
50302;BME280;36550;50.472;19.744;2024-03-22T06:05:25;98243.95;;;9.48;85.09
50302;BME280;36550;50.472;19.744;2024-03-22T06:08:10;98249.23;;;9.50;84.90
50302;BME280;36550;50.472;19.744;2024-03-22T06:10:54;98257.98;;;9.53;84.91
50302;BME280;36550;50.472;19.744;2024-03-22T06:13:39;98255.82;;;9.55;84.96
50302;BME280;36550;50.472;19.744;2024-03-22T06:16:23;98252.81;;;9.58;85.04
50302;BME280;36550;50.472;19.744;2024-03-22T06:19:07;98253.30;;;9.63;84.99
50302;BME280;36550;50.472;19.744;2024-03-22T06:21:52;98255.60;;;9.69;84.88
50302;BME280;36550;50.472;19.744;2024-03-22T06:24:36;98257.08;;;9.76;84.78
50302;BME280;36550;50.472;19.744;2024-03-22T06:27:20;98248.54;;;9.87;84.81
50302;BME280;36550;50.472;19.744;2024-03-22T06:30:04;98248.02;;;10.00;84.73
50302;BME280;36550;50.472;19.744;2024-03-22T06:32:48;98247.77;;;10.13;84.75
50302;BME280;36550;50.472;19.744;2024-03-22T06:35:33;98249.04;;;10.23;84.72
50302;BME280;36550;50.472;19.744;2024-03-22T06:38:17;98249.91;;;10.34;84.71
50302;BME280;36550;50.472;19.744;2024-03-22T06:41:01;98243.59;;;10.45;84.67
50302;BME280;36550;50.472;19.744;2024-03-22T06:43:45;98238.58;;;10.57;84.54
50302;BME280;36550;50.472;19.744;2024-03-22T06:46:31;98238.95;;;10.67;84.47
50302;BME280;36550;50.472;19.744;2024-03-22T06:49:15;98237.34;;;10.72;84.10
50302;BME280;36550;50.472;19.744;2024-03-22T06:51:59;98237.92;;;10.75;83.89
50302;BME280;36550;50.472;19.744;2024-03-22T06:54:43;98237.48;;;10.75;83.56
50302;BME280;36550;50.472;19.744;2024-03-22T06:57:27;98238.23;;;10.75;83.66
50302;BME280;36550;50.472;19.744;2024-03-22T07:00:12;98238.67;;;10.76;83.53
50302;BME280;36550;50.472;19.744;2024-03-22T07:02:57;98237.21;;;10.76;83.24
50302;BME280;36550;50.472;19.744;2024-03-22T07:05:41;98235.16;;;10.76;83.01
50302;BME280;36550;50.472;19.744;2024-03-22T07:08:25;98233.55;;;10.87;83.09
50302;BME280;36550;50.472;19.744;2024-03-22T07:11:09;98230.69;;;11.01;83.14
50302;BME280;36550;50.472;19.744;2024-03-22T07:13:54;98226.59;;;11.13;82.94
50302;BME280;36550;50.472;19.744;2024-03-22T07:16:38;98228.09;;;11.26;82.83
50302;BME280;36550;50.472;19.744;2024-03-22T07:19:22;98222.27;;;11.37;82.75
50302;BME280;36550;50.472;19.744;2024-03-22T07:22:07;98220.14;;;11.47;82.48
50302;BME280;36550;50.472;19.744;2024-03-22T07:24:51;98217.92;;;11.58;82.07
50302;BME280;36550;50.472;19.744;2024-03-22T07:27:38;98213.98;;;11.73;82.10
50302;BME280;36550;50.472;19.744;2024-03-22T07:30:22;98219.04;;;11.91;82.00
50302;BME280;36550;50.472;19.744;2024-03-22T07:33:06;98217.63;;;12.07;81.74
50302;BME280;36550;50.472;19.744;2024-03-22T07:35:50;98214.92;;;12.30;81.85
50302;BME280;36550;50.472;19.744;2024-03-22T07:38:35;98214.77;;;12.48;81.10
50302;BME280;36550;50.472;19.744;2024-03-22T07:41:19;98211.73;;;12.65;80.72
50302;BME280;36550;50.472;19.744;2024-03-22T07:44:03;98217.27;;;12.73;80.42
50302;BME280;36550;50.472;19.744;2024-03-22T07:46:49;98215.07;;;12.74;80.25
50302;BME280;36550;50.472;19.744;2024-03-22T07:49:33;98217.13;;;12.82;80.18
50302;BME280;36550;50.472;19.744;2024-03-22T07:52:18;98217.63;;;12.91;79.95
50302;BME280;36550;50.472;19.744;2024-03-22T07:55:02;98213.79;;;12.92;79.57
50302;BME280;36550;50.472;19.744;2024-03-22T07:57:47;98210.11;;;12.88;79.20
50302;BME280;36550;50.472;19.744;2024-03-22T08:00:31;98211.19;;;12.78;78.61
50302;BME280;36550;50.472;19.744;2024-03-22T08:03:15;98207.39;;;12.66;78.61
50302;BME280;36550;50.472;19.744;2024-03-22T08:05:59;98204.02;;;12.51;78.32
50302;BME280;36550;50.472;19.744;2024-03-22T08:08:43;98200.63;;;12.38;77.93
50302;BME280;36550;50.472;19.744;2024-03-22T08:11:28;98202.13;;;12.25;77.41
50302;BME280;36550;50.472;19.744;2024-03-22T08:14:11;98203.45;;;12.09;77.34
50302;BME280;36550;50.472;19.744;2024-03-22T08:16:56;98203.79;;;11.92;77.11
50302;BME280;36550;50.472;19.744;2024-03-22T08:19:40;98207.03;;;11.79;77.02
50302;BME280;36550;50.472;19.744;2024-03-22T08:22:24;98211.30;;;11.74;77.26
50302;BME280;36550;50.472;19.744;2024-03-22T08:25:08;98215.15;;;11.89;77.53
50302;BME280;36550;50.472;19.744;2024-03-22T08:27:53;98217.23;;;12.06;77.48
50302;BME280;36550;50.472;19.744;2024-03-22T08:30:39;98219.02;;;12.20;77.70
50302;BME280;36550;50.472;19.744;2024-03-22T08:33:23;98221.98;;;12.23;77.36
50302;BME280;36550;50.472;19.744;2024-03-22T08:36:07;98222.20;;;12.21;77.06
50302;BME280;36550;50.472;19.744;2024-03-22T08:38:51;98221.90;;;12.14;76.79
50302;BME280;36550;50.472;19.744;2024-03-22T08:41:37;98216.52;;;12.10;75.63
50302;BME280;36550;50.472;19.744;2024-03-22T08:44:21;98221.72;;;12.06;75.50
50302;BME280;36550;50.472;19.744;2024-03-22T08:47:06;98219.94;;;11.98;75.02
50302;BME280;36550;50.472;19.744;2024-03-22T08:49:50;98220.79;;;11.92;75.01
50302;BME280;36550;50.472;19.744;2024-03-22T08:52:34;98223.13;;;11.90;75.36
50302;BME280;36550;50.472;19.744;2024-03-22T08:55:19;98219.79;;;11.87;75.37
50302;BME280;36550;50.472;19.744;2024-03-22T08:58:04;98221.81;;;11.88;74.81
50302;BME280;36550;50.472;19.744;2024-03-22T09:00:49;98224.47;;;11.87;74.61
50302;BME280;36550;50.472;19.744;2024-03-22T09:03:33;98222.58;;;11.92;74.49
50302;BME280;36550;50.472;19.744;2024-03-22T09:06:17;98223.23;;;11.95;74.79
50302;BME280;36550;50.472;19.744;2024-03-22T09:09:01;98225.09;;;12.07;73.88
50302;BME280;36550;50.472;19.744;2024-03-22T09:11:47;98222.38;;;12.18;73.73
50302;BME280;36550;50.472;19.744;2024-03-22T09:14:32;98221.63;;;12.31;73.52
50302;BME280;36550;50.472;19.744;2024-03-22T09:17:16;98218.97;;;12.51;73.46
50302;BME280;36550;50.472;19.744;2024-03-22T09:20:00;98220.45;;;12.62;73.29
50302;BME280;36550;50.472;19.744;2024-03-22T09:22:46;98223.72;;;12.70;73.11
50302;BME280;36550;50.472;19.744;2024-03-22T09:25:30;98222.13;;;12.73;72.75
50302;BME280;36550;50.472;19.744;2024-03-22T09:28:14;98214.75;;;12.72;72.06
50302;BME280;36550;50.472;19.744;2024-03-22T09:31:04;98209.46;;;12.79;72.39
50302;BME280;36550;50.472;19.744;2024-03-22T09:33:49;98215.66;;;12.82;72.25
50302;BME280;36550;50.472;19.744;2024-03-22T09:36:34;98214.73;;;12.97;71.84
50302;BME280;36550;50.472;19.744;2024-03-22T09:39:19;98213.67;;;13.13;72.13
50302;BME280;36550;50.472;19.744;2024-03-22T09:42:05;98209.27;;;13.23;71.88
50302;BME280;36550;50.472;19.744;2024-03-22T09:44:50;98210.13;;;13.32;71.76
50302;BME280;36550;50.472;19.744;2024-03-22T09:47:37;98208.73;;;13.40;71.80
50302;BME280;36550;50.472;19.744;2024-03-22T09:50:21;98208.83;;;13.50;71.22
50302;BME280;36550;50.472;19.744;2024-03-22T09:53:06;98211.94;;;13.60;70.42
50302;BME280;36550;50.472;19.744;2024-03-22T09:55:50;98214.34;;;13.62;70.33
50302;BME280;36550;50.472;19.744;2024-03-22T09:58:35;98216.97;;;13.62;69.28
50302;BME280;36550;50.472;19.744;2024-03-22T10:01:20;98216.68;;;13.65;69.52
50302;BME280;36550;50.472;19.744;2024-03-22T10:04:04;98215.00;;;13.76;68.89
50302;BME280;36550;50.472;19.744;2024-03-22T10:06:49;98214.44;;;13.83;68.39
50302;BME280;36550;50.472;19.744;2024-03-22T10:09:33;98213.77;;;13.86;68.43
50302;BME280;36550;50.472;19.744;2024-03-22T10:12:17;98203.75;;;13.85;67.99
50302;BME280;36550;50.472;19.744;2024-03-22T10:15:01;98199.93;;;13.90;68.24
50302;BME280;36550;50.472;19.744;2024-03-22T10:17:46;98194.70;;;14.09;68.89
50302;BME280;36550;50.472;19.744;2024-03-22T10:20:30;98181.73;;;14.35;67.93
50302;BME280;36550;50.472;19.744;2024-03-22T10:23:14;98184.55;;;14.55;67.83
50302;BME280;36550;50.472;19.744;2024-03-22T10:25:59;98182.60;;;14.69;66.37
50302;BME280;36550;50.472;19.744;2024-03-22T10:28:46;98180.14;;;14.73;65.61
50302;BME280;36550;50.472;19.744;2024-03-22T10:31:31;98174.81;;;14.76;66.29
50302;BME280;36550;50.472;19.744;2024-03-22T10:34:16;98174.46;;;14.93;67.19
50302;BME280;36550;50.472;19.744;2024-03-22T10:37:02;98175.52;;;15.08;66.03
50302;BME280;36550;50.472;19.744;2024-03-22T10:39:49;98172.85;;;15.16;66.33
50302;BME280;36550;50.472;19.744;2024-03-22T10:42:43;98173.48;;;15.31;66.22
50302;BME280;36550;50.472;19.744;2024-03-22T10:45:29;98173.30;;;15.47;65.68
50302;BME280;36550;50.472;19.744;2024-03-22T10:48:16;98170.51;;;15.51;64.31
50302;BME280;36550;50.472;19.744;2024-03-22T10:51:02;98164.30;;;15.44;64.24
50302;BME280;36550;50.472;19.744;2024-03-22T10:53:47;98161.92;;;15.41;63.47
50302;BME280;36550;50.472;19.744;2024-03-22T10:56:31;98156.30;;;15.30;62.84
50302;BME280;36550;50.472;19.744;2024-03-22T10:59:19;98151.05;;;15.31;63.60
50302;BME280;36550;50.472;19.744;2024-03-22T11:02:04;98152.86;;;15.36;62.97
50302;BME280;36550;50.472;19.744;2024-03-22T11:04:56;98147.05;;;15.42;63.40
50302;BME280;36550;50.472;19.744;2024-03-22T11:07:40;98143.41;;;15.51;63.44
50302;BME280;36550;50.472;19.744;2024-03-22T11:10:29;98136.45;;;15.67;63.81
50302;BME280;36550;50.472;19.744;2024-03-22T11:13:17;98131.40;;;15.80;62.43
50302;BME280;36550;50.472;19.744;2024-03-22T11:16:02;98127.00;;;15.76;60.42
50302;BME280;36550;50.472;19.744;2024-03-22T11:18:46;98120.29;;;15.80;60.87
50302;BME280;36550;50.472;19.744;2024-03-22T11:21:33;98115.30;;;15.97;61.52
50302;BME280;36550;50.472;19.744;2024-03-22T11:24:17;98106.21;;;16.16;61.59
50302;BME280;36550;50.472;19.744;2024-03-22T11:27:02;98100.88;;;16.33;61.57
50302;BME280;36550;50.472;19.744;2024-03-22T11:29:46;98096.36;;;16.52;61.63
50302;BME280;36550;50.472;19.744;2024-03-22T11:32:31;98095.73;;;16.77;62.00
50302;BME280;36550;50.472;19.744;2024-03-22T11:35:14;98094.72;;;17.05;61.46
50302;BME280;36550;50.472;19.744;2024-03-22T11:37:59;98094.20;;;17.21;60.56
50302;BME280;36550;50.472;19.744;2024-03-22T11:40:44;98093.58;;;17.18;60.33
50302;BME280;36550;50.472;19.744;2024-03-22T11:43:29;98089.56;;;17.13;60.13
50302;BME280;36550;50.472;19.744;2024-03-22T11:46:15;98082.41;;;17.06;58.47
50302;BME280;36550;50.472;19.744;2024-03-22T11:48:59;98079.59;;;16.98;58.73
50302;BME280;36550;50.472;19.744;2024-03-22T11:51:45;98078.92;;;16.96;58.73
50302;BME280;36550;50.472;19.744;2024-03-22T11:54:29;98074.52;;;17.03;58.44
50302;BME280;36550;50.472;19.744;2024-03-22T11:57:15;98067.49;;;17.09;57.77
50302;BME280;36550;50.472;19.744;2024-03-22T12:00:00;98065.57;;;17.10;57.95
50302;BME280;36550;50.472;19.744;2024-03-22T12:02:45;98062.75;;;17.11;57.37
50302;BME280;36550;50.472;19.744;2024-03-22T12:05:30;98061.64;;;17.01;54.41
50302;BME280;36550;50.472;19.744;2024-03-22T12:08:15;98063.42;;;16.96;54.28
50302;BME280;36550;50.472;19.744;2024-03-22T12:10:59;98058.02;;;16.87;54.49
50302;BME280;36550;50.472;19.744;2024-03-22T12:13:43;98062.65;;;16.80;54.22
50302;BME280;36550;50.472;19.744;2024-03-22T12:16:28;98061.10;;;16.70;54.49
50302;BME280;36550;50.472;19.744;2024-03-22T12:19:12;98054.40;;;16.63;53.70
50302;BME280;36550;50.472;19.744;2024-03-22T12:21:56;98055.21;;;16.60;54.31
50302;BME280;36550;50.472;19.744;2024-03-22T12:24:41;98054.78;;;16.61;53.65
50302;BME280;36550;50.472;19.744;2024-03-22T12:27:25;98054.05;;;16.61;54.12
50302;BME280;36550;50.472;19.744;2024-03-22T12:30:10;98051.77;;;16.68;54.96
50302;BME280;36550;50.472;19.744;2024-03-22T12:32:55;98054.11;;;16.68;53.84
50302;BME280;36550;50.472;19.744;2024-03-22T12:35:40;98047.23;;;16.57;52.97
50302;BME280;36550;50.472;19.744;2024-03-22T12:38:25;98048.67;;;16.55;53.93
50302;BME280;36550;50.472;19.744;2024-03-22T12:41:09;98039.27;;;16.46;53.18
50302;BME280;36550;50.472;19.744;2024-03-22T12:43:55;98035.69;;;16.42;53.25
50302;BME280;36550;50.472;19.744;2024-03-22T12:46:39;98030.39;;;16.42;53.99
50302;BME280;36550;50.472;19.744;2024-03-22T12:49:26;98027.66;;;16.49;53.76
50302;BME280;36550;50.472;19.744;2024-03-22T12:52:11;98025.92;;;16.45;53.10
50302;BME280;36550;50.472;19.744;2024-03-22T12:54:55;98026.27;;;16.41;53.44
50302;BME280;36550;50.472;19.744;2024-03-22T12:57:39;98020.39;;;16.39;53.92
50302;BME280;36550;50.472;19.744;2024-03-22T13:00:23;98013.17;;;16.43;54.18
50302;BME280;36550;50.472;19.744;2024-03-22T13:03:07;98012.77;;;16.41;53.98
50302;BME280;36550;50.472;19.744;2024-03-22T13:05:51;98007.90;;;16.38;53.61
50302;BME280;36550;50.472;19.744;2024-03-22T13:08:35;98006.12;;;16.33;53.76
50302;BME280;36550;50.472;19.744;2024-03-22T13:11:19;97995.39;;;16.29;53.96
50302;BME280;36550;50.472;19.744;2024-03-22T13:14:04;97995.21;;;16.30;53.98
50302;BME280;36550;50.472;19.744;2024-03-22T13:16:48;97991.44;;;16.34;54.12
50302;BME280;36550;50.472;19.744;2024-03-22T13:19:32;97987.46;;;16.35;54.01
50302;BME280;36550;50.472;19.744;2024-03-22T13:22:16;97981.20;;;16.38;53.99
50302;BME280;36550;50.472;19.744;2024-03-22T13:25:05;97978.89;;;16.33;53.79
50302;BME280;36550;50.472;19.744;2024-03-22T13:27:51;97983.10;;;16.29;53.63
50302;BME280;36550;50.472;19.744;2024-03-22T13:30:34;97979.87;;;16.27;54.00
50302;BME280;36550;50.472;19.744;2024-03-22T13:33:21;97980.95;;;16.34;54.33
50302;BME280;36550;50.472;19.744;2024-03-22T13:36:06;97977.44;;;16.39;53.82
50302;BME280;36550;50.472;19.744;2024-03-22T13:38:50;97970.02;;;16.25;52.63
50302;BME280;36550;50.472;19.744;2024-03-22T13:41:34;97972.84;;;16.12;53.09
50302;BME280;36550;50.472;19.744;2024-03-22T13:44:18;97974.89;;;16.05;53.16
50302;BME280;36550;50.472;19.744;2024-03-22T13:47:02;97970.05;;;15.93;52.56
50302;BME280;36550;50.472;19.744;2024-03-22T13:49:48;97970.99;;;15.81;52.81
50302;BME280;36550;50.472;19.744;2024-03-22T13:52:33;97964.36;;;15.74;53.32
50302;BME280;36550;50.472;19.744;2024-03-22T13:55:17;97960.66;;;15.68;53.61
50302;BME280;36550;50.472;19.744;2024-03-22T13:58:01;97962.19;;;15.54;53.62
50302;BME280;36550;50.472;19.744;2024-03-22T14:00:45;97963.36;;;15.41;53.34
50302;BME280;36550;50.472;19.744;2024-03-22T14:03:29;97955.88;;;15.28;54.15
50302;BME280;36550;50.472;19.744;2024-03-22T14:06:14;97952.12;;;15.29;54.24
50302;BME280;36550;50.472;19.744;2024-03-22T14:08:59;97951.27;;;15.31;54.46
50302;BME280;36550;50.472;19.744;2024-03-22T14:11:44;97947.63;;;15.32;53.67
50302;BME280;36550;50.472;19.744;2024-03-22T14:14:29;97943.96;;;15.30;54.37
50302;BME280;36550;50.472;19.744;2024-03-22T14:17:13;97939.36;;;15.38;54.72
50302;BME280;36550;50.472;19.744;2024-03-22T14:19:57;97937.02;;;15.42;54.54
50302;BME280;36550;50.472;19.744;2024-03-22T14:22:41;97934.65;;;15.38;54.20
50302;BME280;36550;50.472;19.744;2024-03-22T14:25:26;97932.66;;;15.27;53.75